sensor_id;sensor_type;location;lat;lon;timestamp;temperature;humidity
30983;DHT22;17660;52.578;13.288;2023-02-01T00:01:30;5.10;99.90
30983;DHT22;17660;52.578;13.288;2023-02-01T00:03:57;5.00;99.90
30983;DHT22;17660;52.578;13.288;2023-02-01T00:06:24;5.00;99.90
30983;DHT22;17660;52.578;13.288;2023-02-01T00:08:54;4.90;99.90
30983;DHT22;17660;52.578;13.288;2023-02-01T00:11:22;4.80;99.90
30983;DHT22;17660;52.578;13.288;2023-02-01T00:13:49;4.80;99.90
30983;DHT22;17660;52.578;13.288;2023-02-01T00:16:19;4.80;99.90
30983;DHT22;17660;52.578;13.288;2023-02-01T00:18:48;4.70;99.90
30983;DHT22;17660;52.578;13.288;2023-02-01T00:21:18;4.70;99.90
30983;DHT22;17660;52.578;13.288;2023-02-01T00:23:45;4.70;99.90
30983;DHT22;17660;52.578;13.288;2023-02-01T00:26:24;4.80;99.90
30983;DHT22;17660;52.578;13.288;2023-02-01T00:28:52;4.80;99.90
30983;DHT22;17660;52.578;13.288;2023-02-01T00:31:19;4.80;99.90
30983;DHT22;17660;52.578;13.288;2023-02-01T00:33:49;4.80;99.90
30983;DHT22;17660;52.578;13.288;2023-02-01T00:36:16;4.80;99.90
30983;DHT22;17660;52.578;13.288;2023-02-01T00:38:43;4.80;99.90
30983;DHT22;17660;52.578;13.288;2023-02-01T00:41:13;4.80;99.90
30983;DHT22;17660;52.578;13.288;2023-02-01T00:43:40;4.80;99.90
30983;DHT22;17660;52.578;13.288;2023-02-01T00:46:08;4.80;99.90
30983;DHT22;17660;52.578;13.288;2023-02-01T00:48:35;4.80;99.90
30983;DHT22;17660;52.578;13.288;2023-02-01T00:51:08;4.90;99.90
30983;DHT22;17660;52.578;13.288;2023-02-01T00:53:36;4.80;99.90
30983;DHT22;17660;52.578;13.288;2023-02-01T00:56:03;4.90;99.90
30983;DHT22;17660;52.578;13.288;2023-02-01T00:58:31;4.90;99.90
30983;DHT22;17660;52.578;13.288;2023-02-01T01:01:22;4.90;99.90
30983;DHT22;17660;52.578;13.288;2023-02-01T01:03:55;4.80;99.90
30983;DHT22;17660;52.578;13.288;2023-02-01T01:06:31;4.70;99.90
30983;DHT22;17660;52.578;13.288;2023-02-01T01:09:00;4.70;99.90
30983;DHT22;17660;52.578;13.288;2023-02-01T01:11:29;4.70;99.90
30983;DHT22;17660;52.578;13.288;2023-02-01T01:13:57;4.70;99.90
30983;DHT22;17660;52.578;13.288;2023-02-01T01:16:26;4.70;99.90
30983;DHT22;17660;52.578;13.288;2023-02-01T01:18:54;4.70;99.90
30983;DHT22;17660;52.578;13.288;2023-02-01T01:21:21;4.60;99.90
30983;DHT22;17660;52.578;13.288;2023-02-01T01:23:48;4.60;99.90
30983;DHT22;17660;52.578;13.288;2023-02-01T01:26:18;4.70;99.90
30983;DHT22;17660;52.578;13.288;2023-02-01T01:28:45;4.70;99.90
30983;DHT22;17660;52.578;13.288;2023-02-01T01:31:14;4.70;99.90
30983;DHT22;17660;52.578;13.288;2023-02-01T01:33:41;4.70;99.90
30983;DHT22;17660;52.578;13.288;2023-02-01T01:36:08;4.70;99.90
30983;DHT22;17660;52.578;13.288;2023-02-01T01:38:39;4.70;99.90
30983;DHT22;17660;52.578;13.288;2023-02-01T01:41:06;4.70;99.90
30983;DHT22;17660;52.578;13.288;2023-02-01T01:46:22;4.80;99.90
30983;DHT22;17660;52.578;13.288;2023-02-01T01:49:15;4.80;99.90
30983;DHT22;17660;52.578;13.288;2023-02-01T01:51:47;4.80;99.90
30983;DHT22;17660;52.578;13.288;2023-02-01T01:54:40;4.80;99.90
30983;DHT22;17660;52.578;13.288;2023-02-01T01:57:14;4.90;99.90
30983;DHT22;17660;52.578;13.288;2023-02-01T01:59:43;4.90;99.90
30983;DHT22;17660;52.578;13.288;2023-02-01T02:02:12;4.90;99.90
30983;DHT22;17660;52.578;13.288;2023-02-01T02:04:39;4.90;99.90
30983;DHT22;17660;52.578;13.288;2023-02-01T02:07:16;5.00;99.90
30983;DHT22;17660;52.578;13.288;2023-02-01T02:09:44;4.90;99.90
30983;DHT22;17660;52.578;13.288;2023-02-01T02:12:25;4.90;99.90
30983;DHT22;17660;52.578;13.288;2023-02-01T02:14:52;4.90;99.90
30983;DHT22;17660;52.578;13.288;2023-02-01T02:31:40;5.00;99.90
30983;DHT22;17660;52.578;13.288;2023-02-01T02:40:21;5.00;99.90
30983;DHT22;17660;52.578;13.288;2023-02-01T02:46:21;5.00;99.90
30983;DHT22;17660;52.578;13.288;2023-02-01T02:51:54;5.00;99.90
30983;DHT22;17660;52.578;13.288;2023-02-01T02:54:45;5.00;99.90
30983;DHT22;17660;52.578;13.288;2023-02-01T02:57:17;5.00;99.90
30983;DHT22;17660;52.578;13.288;2023-02-01T03:00:09;5.00;99.90
30983;DHT22;17660;52.578;13.288;2023-02-01T03:02:55;5.00;99.90
30983;DHT22;17660;52.578;13.288;2023-02-01T03:05:45;5.00;99.90
30983;DHT22;17660;52.578;13.288;2023-02-01T03:08:13;5.00;99.90
30983;DHT22;17660;52.578;13.288;2023-02-01T03:11:16;5.00;99.90
30983;DHT22;17660;52.578;13.288;2023-02-01T03:13:47;5.00;99.90
30983;DHT22;17660;52.578;13.288;2023-02-01T03:19:27;5.10;99.90
30983;DHT22;17660;52.578;13.288;2023-02-01T03:22:01;5.10;99.90
30983;DHT22;17660;52.578;13.288;2023-02-01T03:24:40;5.00;99.90
30983;DHT22;17660;52.578;13.288;2023-02-01T03:27:09;5.10;99.90
30983;DHT22;17660;52.578;13.288;2023-02-01T03:29:48;5.00;99.90
30983;DHT22;17660;52.578;13.288;2023-02-01T03:32:16;5.00;99.90
30983;DHT22;17660;52.578;13.288;2023-02-01T03:34:45;5.10;99.90
30983;DHT22;17660;52.578;13.288;2023-02-01T03:37:21;5.10;99.90
30983;DHT22;17660;52.578;13.288;2023-02-01T03:39:56;5.10;99.90
30983;DHT22;17660;52.578;13.288;2023-02-01T03:42:29;5.00;99.90
30983;DHT22;17660;52.578;13.288;2023-02-01T03:45:00;5.00;99.90
30983;DHT22;17660;52.578;13.288;2023-02-01T03:47:35;5.10;99.90
30983;DHT22;17660;52.578;13.288;2023-02-01T03:50:06;5.00;99.90
30983;DHT22;17660;52.578;13.288;2023-02-01T03:52:42;5.00;99.90
30983;DHT22;17660;52.578;13.288;2023-02-01T03:55:13;5.10;99.90
30983;DHT22;17660;52.578;13.288;2023-02-01T03:57:48;5.10;99.90
30983;DHT22;17660;52.578;13.288;2023-02-01T04:00:21;5.10;99.90
30983;DHT22;17660;52.578;13.288;2023-02-01T04:02:49;5.10;99.90
30983;DHT22;17660;52.578;13.288;2023-02-01T04:05:16;5.20;99.90
30983;DHT22;17660;52.578;13.288;2023-02-01T04:07:43;5.20;99.90
30983;DHT22;17660;52.578;13.288;2023-02-01T04:10:11;5.30;99.90
30983;DHT22;17660;52.578;13.288;2023-02-01T04:12:38;5.30;99.90
30983;DHT22;17660;52.578;13.288;2023-02-01T04:15:05;5.30;99.90
30983;DHT22;17660;52.578;13.288;2023-02-01T04:17:33;5.30;99.90
30983;DHT22;17660;52.578;13.288;2023-02-01T04:19:59;5.30;99.90
30983;DHT22;17660;52.578;13.288;2023-02-01T04:22:26;5.40;99.90
30983;DHT22;17660;52.578;13.288;2023-02-01T04:24:53;5.40;99.90
30983;DHT22;17660;52.578;13.288;2023-02-01T04:27:19;5.50;99.90
30983;DHT22;17660;52.578;13.288;2023-02-01T04:29:47;5.50;99.90
30983;DHT22;17660;52.578;13.288;2023-02-01T04:32:16;5.50;99.90
30983;DHT22;17660;52.578;13.288;2023-02-01T04:34:43;5.50;99.90
30983;DHT22;17660;52.578;13.288;2023-02-01T04:37:10;5.50;99.90
30983;DHT22;17660;52.578;13.288;2023-02-01T04:39:37;5.60;99.90
30983;DHT22;17660;52.578;13.288;2023-02-01T04:42:04;5.60;99.90
30983;DHT22;17660;52.578;13.288;2023-02-01T04:44:31;5.60;99.90
30983;DHT22;17660;52.578;13.288;2023-02-01T04:46:57;5.60;99.90
30983;DHT22;17660;52.578;13.288;2023-02-01T04:49:25;5.60;99.90
30983;DHT22;17660;52.578;13.288;2023-02-01T04:51:53;5.70;99.90
30983;DHT22;17660;52.578;13.288;2023-02-01T04:54:20;5.70;99.90
30983;DHT22;17660;52.578;13.288;2023-02-01T04:56:46;5.70;99.90
30983;DHT22;17660;52.578;13.288;2023-02-01T04:59:13;5.60;99.90
30983;DHT22;17660;52.578;13.288;2023-02-01T05:01:40;5.70;99.90
30983;DHT22;17660;52.578;13.288;2023-02-01T05:04:07;5.70;99.90
30983;DHT22;17660;52.578;13.288;2023-02-01T05:06:33;5.70;99.90
30983;DHT22;17660;52.578;13.288;2023-02-01T05:09:00;5.70;99.90
30983;DHT22;17660;52.578;13.288;2023-02-01T05:11:27;5.80;99.90
30983;DHT22;17660;52.578;13.288;2023-02-01T05:14:12;5.80;99.90
30983;DHT22;17660;52.578;13.288;2023-02-01T05:16:39;5.70;99.90
30983;DHT22;17660;52.578;13.288;2023-02-01T05:19:06;5.80;99.90
30983;DHT22;17660;52.578;13.288;2023-02-01T05:21:33;5.80;99.90
30983;DHT22;17660;52.578;13.288;2023-02-01T05:23:59;5.80;99.90
30983;DHT22;17660;52.578;13.288;2023-02-01T05:26:36;5.80;99.90
30983;DHT22;17660;52.578;13.288;2023-02-01T05:29:04;5.80;99.90
30983;DHT22;17660;52.578;13.288;2023-02-01T05:31:30;5.80;99.90
30983;DHT22;17660;52.578;13.288;2023-02-01T05:33:57;5.80;99.90
30983;DHT22;17660;52.578;13.288;2023-02-01T05:36:24;5.80;99.90
30983;DHT22;17660;52.578;13.288;2023-02-01T05:38:51;5.90;99.90
30983;DHT22;17660;52.578;13.288;2023-02-01T05:41:18;5.90;99.90
30983;DHT22;17660;52.578;13.288;2023-02-01T05:43:44;6.00;99.90
30983;DHT22;17660;52.578;13.288;2023-02-01T05:46:11;5.90;99.90
30983;DHT22;17660;52.578;13.288;2023-02-01T05:48:40;5.90;99.90
30983;DHT22;17660;52.578;13.288;2023-02-01T05:51:07;5.90;99.90
30983;DHT22;17660;52.578;13.288;2023-02-01T05:53:34;5.90;99.90
30983;DHT22;17660;52.578;13.288;2023-02-01T05:56:02;5.90;99.90
30983;DHT22;17660;52.578;13.288;2023-02-01T05:58:29;5.90;99.90
30983;DHT22;17660;52.578;13.288;2023-02-01T06:00:55;5.90;99.90
30983;DHT22;17660;52.578;13.288;2023-02-01T06:03:22;5.90;99.90
30983;DHT22;17660;52.578;13.288;2023-02-01T06:05:48;5.90;99.90
30983;DHT22;17660;52.578;13.288;2023-02-01T06:08:15;6.00;99.90
30983;DHT22;17660;52.578;13.288;2023-02-01T06:10:43;6.00;99.90
30983;DHT22;17660;52.578;13.288;2023-02-01T06:13:10;6.00;99.90
30983;DHT22;17660;52.578;13.288;2023-02-01T06:15:37;6.00;99.90
30983;DHT22;17660;52.578;13.288;2023-02-01T06:18:08;5.90;99.90
30983;DHT22;17660;52.578;13.288;2023-02-01T06:20:35;5.90;99.90
30983;DHT22;17660;52.578;13.288;2023-02-01T06:23:02;5.90;99.90
30983;DHT22;17660;52.578;13.288;2023-02-01T06:25:29;5.90;99.90
30983;DHT22;17660;52.578;13.288;2023-02-01T06:27:55;5.90;99.90
30983;DHT22;17660;52.578;13.288;2023-02-01T06:30:26;5.80;99.90
30983;DHT22;17660;52.578;13.288;2023-02-01T06:32:53;5.90;99.90
30983;DHT22;17660;52.578;13.288;2023-02-01T06:35:22;5.80;99.90
30983;DHT22;17660;52.578;13.288;2023-02-01T06:37:49;5.80;99.90
30983;DHT22;17660;52.578;13.288;2023-02-01T06:40:17;5.70;99.90
30983;DHT22;17660;52.578;13.288;2023-02-01T06:42:44;5.70;99.90
30983;DHT22;17660;52.578;13.288;2023-02-01T06:45:10;5.70;99.90
30983;DHT22;17660;52.578;13.288;2023-02-01T06:47:37;5.70;99.90
30983;DHT22;17660;52.578;13.288;2023-02-01T06:50:04;5.70;99.90
30983;DHT22;17660;52.578;13.288;2023-02-01T06:52:31;5.70;99.90
30983;DHT22;17660;52.578;13.288;2023-02-01T06:54:58;5.70;99.90
30983;DHT22;17660;52.578;13.288;2023-02-01T06:57:25;5.70;99.90
30983;DHT22;17660;52.578;13.288;2023-02-01T06:59:53;5.70;99.90
30983;DHT22;17660;52.578;13.288;2023-02-01T07:02:20;5.60;99.90
30983;DHT22;17660;52.578;13.288;2023-02-01T07:04:47;5.60;99.90
30983;DHT22;17660;52.578;13.288;2023-02-01T07:07:14;5.60;99.90
30983;DHT22;17660;52.578;13.288;2023-02-01T07:09:41;5.70;99.90
30983;DHT22;17660;52.578;13.288;2023-02-01T07:12:08;5.70;99.90
30983;DHT22;17660;52.578;13.288;2023-02-01T07:14:35;5.70;99.90
30983;DHT22;17660;52.578;13.288;2023-02-01T07:17:01;5.70;99.90
30983;DHT22;17660;52.578;13.288;2023-02-01T07:19:28;5.70;99.90
30983;DHT22;17660;52.578;13.288;2023-02-01T07:21:55;5.70;99.90
30983;DHT22;17660;52.578;13.288;2023-02-01T07:24:22;5.70;99.90
30983;DHT22;17660;52.578;13.288;2023-02-01T07:26:48;5.70;99.90
30983;DHT22;17660;52.578;13.288;2023-02-01T07:29:18;5.70;99.90
30983;DHT22;17660;52.578;13.288;2023-02-01T07:31:45;5.70;99.90
30983;DHT22;17660;52.578;13.288;2023-02-01T07:34:11;5.70;99.90
30983;DHT22;17660;52.578;13.288;2023-02-01T07:36:38;5.80;99.90
30983;DHT22;17660;52.578;13.288;2023-02-01T07:39:05;5.80;99.90
30983;DHT22;17660;52.578;13.288;2023-02-01T07:41:32;5.80;99.90
30983;DHT22;17660;52.578;13.288;2023-02-01T07:43:58;5.70;99.90
30983;DHT22;17660;52.578;13.288;2023-02-01T07:46:25;5.60;99.90
30983;DHT22;17660;52.578;13.288;2023-02-01T07:48:52;5.50;99.90
30983;DHT22;17660;52.578;13.288;2023-02-01T07:51:18;5.30;99.90
30983;DHT22;17660;52.578;13.288;2023-02-01T07:53:45;5.30;99.90
30983;DHT22;17660;52.578;13.288;2023-02-01T07:56:16;5.20;99.90
30983;DHT22;17660;52.578;13.288;2023-02-01T07:58:46;5.20;99.90
30983;DHT22;17660;52.578;13.288;2023-02-01T08:01:18;5.10;99.90
30983;DHT22;17660;52.578;13.288;2023-02-01T08:03:49;4.90;99.90
30983;DHT22;17660;52.578;13.288;2023-02-01T08:06:16;4.90;99.90
30983;DHT22;17660;52.578;13.288;2023-02-01T08:08:43;5.00;99.90
30983;DHT22;17660;52.578;13.288;2023-02-01T08:11:12;4.90;99.90
30983;DHT22;17660;52.578;13.288;2023-02-01T08:13:39;4.90;99.90
30983;DHT22;17660;52.578;13.288;2023-02-01T08:16:07;4.80;99.90
30983;DHT22;17660;52.578;13.288;2023-02-01T08:18:36;4.90;99.90
30983;DHT22;17660;52.578;13.288;2023-02-01T08:21:11;5.00;99.90
30983;DHT22;17660;52.578;13.288;2023-02-01T08:23:40;5.10;99.90
30983;DHT22;17660;52.578;13.288;2023-02-01T08:28:35;4.90;99.90
30983;DHT22;17660;52.578;13.288;2023-02-01T08:31:05;4.90;99.90
30983;DHT22;17660;52.578;13.288;2023-02-01T08:33:32;4.90;99.90
30983;DHT22;17660;52.578;13.288;2023-02-01T08:36:01;4.90;99.90
30983;DHT22;17660;52.578;13.288;2023-02-01T08:38:28;5.00;99.90
30983;DHT22;17660;52.578;13.288;2023-02-01T08:40:55;5.00;99.90
30983;DHT22;17660;52.578;13.288;2023-02-01T08:43:22;5.00;99.90
30983;DHT22;17660;52.578;13.288;2023-02-01T08:45:50;5.00;99.90
30983;DHT22;17660;52.578;13.288;2023-02-01T08:48:17;5.00;99.90
30983;DHT22;17660;52.578;13.288;2023-02-01T08:50:43;5.00;99.90
30983;DHT22;17660;52.578;13.288;2023-02-01T08:53:10;4.90;99.90
30983;DHT22;17660;52.578;13.288;2023-02-01T08:55:40;4.90;99.90
30983;DHT22;17660;52.578;13.288;2023-02-01T08:58:06;4.90;99.90
30983;DHT22;17660;52.578;13.288;2023-02-01T09:00:33;4.90;99.90
30983;DHT22;17660;52.578;13.288;2023-02-01T09:03:00;4.90;99.90
30983;DHT22;17660;52.578;13.288;2023-02-01T09:05:27;4.90;99.90
30983;DHT22;17660;52.578;13.288;2023-02-01T09:08:13;5.00;99.90
30983;DHT22;17660;52.578;13.288;2023-02-01T09:10:42;5.10;99.90
30983;DHT22;17660;52.578;13.288;2023-02-01T09:13:09;5.10;99.90
30983;DHT22;17660;52.578;13.288;2023-02-01T09:15:37;5.10;99.90
30983;DHT22;17660;52.578;13.288;2023-02-01T09:18:04;5.20;99.90
30983;DHT22;17660;52.578;13.288;2023-02-01T09:20:31;5.20;99.90
30983;DHT22;17660;52.578;13.288;2023-02-01T09:22:57;5.30;99.90
30983;DHT22;17660;52.578;13.288;2023-02-01T09:25:24;5.30;99.90
30983;DHT22;17660;52.578;13.288;2023-02-01T09:27:51;5.30;99.90
30983;DHT22;17660;52.578;13.288;2023-02-01T09:30:18;5.40;99.90
30983;DHT22;17660;52.578;13.288;2023-02-01T09:32:45;5.30;99.90
30983;DHT22;17660;52.578;13.288;2023-02-01T09:35:11;5.40;99.90
30983;DHT22;17660;52.578;13.288;2023-02-01T09:37:38;5.50;99.90
30983;DHT22;17660;52.578;13.288;2023-02-01T09:40:05;5.50;99.90
30983;DHT22;17660;52.578;13.288;2023-02-01T09:43:17;5.50;99.90
30983;DHT22;17660;52.578;13.288;2023-02-01T09:48:55;5.40;99.90
30983;DHT22;17660;52.578;13.288;2023-02-01T09:51:26;5.40;99.90
30983;DHT22;17660;52.578;13.288;2023-02-01T09:54:00;5.50;99.90
30983;DHT22;17660;52.578;13.288;2023-02-01T09:56:49;5.40;99.90
30983;DHT22;17660;52.578;13.288;2023-02-01T10:04:39;5.30;99.90
30983;DHT22;17660;52.578;13.288;2023-02-01T10:07:19;5.30;99.90
30983;DHT22;17660;52.578;13.288;2023-02-01T10:10:02;5.30;99.90
30983;DHT22;17660;52.578;13.288;2023-02-01T10:18:15;5.30;99.90
30983;DHT22;17660;52.578;13.288;2023-02-01T10:24:07;5.10;99.90
30983;DHT22;17660;52.578;13.288;2023-02-01T10:26:55;5.20;99.90
30983;DHT22;17660;52.578;13.288;2023-02-01T10:29:28;5.30;99.90
30983;DHT22;17660;52.578;13.288;2023-02-01T10:31:58;5.40;99.90
30983;DHT22;17660;52.578;13.288;2023-02-01T10:34:31;5.50;99.90
30983;DHT22;17660;52.578;13.288;2023-02-01T10:40:22;5.90;99.90
30983;DHT22;17660;52.578;13.288;2023-02-01T10:42:50;5.90;99.90
30983;DHT22;17660;52.578;13.288;2023-02-01T10:45:21;5.70;99.90
30983;DHT22;17660;52.578;13.288;2023-02-01T10:47:51;5.60;99.90
30983;DHT22;17660;52.578;13.288;2023-02-01T10:50:37;5.50;99.90
30983;DHT22;17660;52.578;13.288;2023-02-01T10:53:10;5.50;99.90
30983;DHT22;17660;52.578;13.288;2023-02-01T10:55:50;5.50;99.90
30983;DHT22;17660;52.578;13.288;2023-02-01T10:58:19;5.40;99.90
30983;DHT22;17660;52.578;13.288;2023-02-01T11:01:03;5.40;99.90
30983;DHT22;17660;52.578;13.288;2023-02-01T11:03:41;5.50;99.90
30983;DHT22;17660;52.578;13.288;2023-02-01T11:08:53;5.70;99.90
30983;DHT22;17660;52.578;13.288;2023-02-01T11:11:21;5.90;99.90
30983;DHT22;17660;52.578;13.288;2023-02-01T11:13:56;5.80;99.90
30983;DHT22;17660;52.578;13.288;2023-02-01T11:16:36;5.90;99.90
30983;DHT22;17660;52.578;13.288;2023-02-01T11:19:04;5.90;99.90
30983;DHT22;17660;52.578;13.288;2023-02-01T11:21:34;5.80;99.90
30983;DHT22;17660;52.578;13.288;2023-02-01T11:24:05;6.20;99.90
30983;DHT22;17660;52.578;13.288;2023-02-01T11:26:39;6.50;99.90
30983;DHT22;17660;52.578;13.288;2023-02-01T11:29:13;6.50;99.90
30983;DHT22;17660;52.578;13.288;2023-02-01T11:31:45;6.60;99.90
30983;DHT22;17660;52.578;13.288;2023-02-01T11:34:17;7.10;99.90
30983;DHT22;17660;52.578;13.288;2023-02-01T11:36:47;7.00;99.90
30983;DHT22;17660;52.578;13.288;2023-02-01T11:39:18;6.80;99.90
30983;DHT22;17660;52.578;13.288;2023-02-01T11:42:25;6.70;99.90
30983;DHT22;17660;52.578;13.288;2023-02-01T11:47:46;6.70;99.90
30983;DHT22;17660;52.578;13.288;2023-02-01T11:55:33;7.40;99.90
30983;DHT22;17660;52.578;13.288;2023-02-01T12:14:24;9.10;99.90
30983;DHT22;17660;52.578;13.288;2023-02-01T12:25:29;7.50;99.90
30983;DHT22;17660;52.578;13.288;2023-02-01T12:28:06;7.20;99.90
30983;DHT22;17660;52.578;13.288;2023-02-01T12:36:28;6.80;99.90
30983;DHT22;17660;52.578;13.288;2023-02-01T12:39:31;6.70;99.90
30983;DHT22;17660;52.578;13.288;2023-02-01T12:42:19;6.80;99.90
30983;DHT22;17660;52.578;13.288;2023-02-01T12:48:07;6.90;99.90
30983;DHT22;17660;52.578;13.288;2023-02-01T12:50:51;6.90;99.90
30983;DHT22;17660;52.578;13.288;2023-02-01T12:53:27;7.00;99.90
30983;DHT22;17660;52.578;13.288;2023-02-01T12:56:02;7.00;99.90
30983;DHT22;17660;52.578;13.288;2023-02-01T12:58:49;7.00;99.90
30983;DHT22;17660;52.578;13.288;2023-02-01T13:01:39;7.10;99.90
30983;DHT22;17660;52.578;13.288;2023-02-01T13:06:43;7.30;99.90
30983;DHT22;17660;52.578;13.288;2023-02-01T13:09:49;7.30;99.90
30983;DHT22;17660;52.578;13.288;2023-02-01T13:12:42;7.40;99.90
30983;DHT22;17660;52.578;13.288;2023-02-01T13:15:15;7.40;99.90
30983;DHT22;17660;52.578;13.288;2023-02-01T13:17:44;7.50;99.90
30983;DHT22;17660;52.578;13.288;2023-02-01T13:20:35;7.60;99.90
30983;DHT22;17660;52.578;13.288;2023-02-01T13:23:16;7.60;99.90
30983;DHT22;17660;52.578;13.288;2023-02-01T13:25:52;7.60;99.90
30983;DHT22;17660;52.578;13.288;2023-02-01T13:28:27;7.50;99.90
30983;DHT22;17660;52.578;13.288;2023-02-01T13:36:46;7.40;99.90
30983;DHT22;17660;52.578;13.288;2023-02-01T13:42:28;7.40;99.90
30983;DHT22;17660;52.578;13.288;2023-02-01T13:44:57;7.30;99.90
30983;DHT22;17660;52.578;13.288;2023-02-01T13:47:29;7.30;99.90
30983;DHT22;17660;52.578;13.288;2023-02-01T13:50:49;7.30;99.90
30983;DHT22;17660;52.578;13.288;2023-02-01T13:52:58;7.30;99.90
30983;DHT22;17660;52.578;13.288;2023-02-01T14:00:42;7.30;99.90
30983;DHT22;17660;52.578;13.288;2023-02-01T14:10:56;7.10;99.90
30983;DHT22;17660;52.578;13.288;2023-02-01T14:13:37;7.00;99.90
30983;DHT22;17660;52.578;13.288;2023-02-01T14:40:01;6.40;99.90
30983;DHT22;17660;52.578;13.288;2023-02-01T14:47:54;6.50;99.90
30983;DHT22;17660;52.578;13.288;2023-02-01T14:55:44;6.70;99.90
30983;DHT22;17660;52.578;13.288;2023-02-01T14:58:57;6.70;99.90
30983;DHT22;17660;52.578;13.288;2023-02-01T15:01:29;6.60;99.90
30983;DHT22;17660;52.578;13.288;2023-02-01T15:04:25;6.70;99.90
30983;DHT22;17660;52.578;13.288;2023-02-01T15:06:57;6.60;99.90
30983;DHT22;17660;52.578;13.288;2023-02-01T15:09:30;6.50;99.90
30983;DHT22;17660;52.578;13.288;2023-02-01T15:15:16;6.20;99.90
30983;DHT22;17660;52.578;13.288;2023-02-01T15:17:59;6.00;99.90
30983;DHT22;17660;52.578;13.288;2023-02-01T15:20:31;5.80;99.90
30983;DHT22;17660;52.578;13.288;2023-02-01T15:23:02;5.70;99.90
30983;DHT22;17660;52.578;13.288;2023-02-01T15:27:57;5.60;99.90
30983;DHT22;17660;52.578;13.288;2023-02-01T15:30:27;5.40;99.90
30983;DHT22;17660;52.578;13.288;2023-02-01T15:43:49;5.20;99.90
30983;DHT22;17660;52.578;13.288;2023-02-01T15:46:36;5.20;99.90
30983;DHT22;17660;52.578;13.288;2023-02-01T15:49:03;5.10;99.90
30983;DHT22;17660;52.578;13.288;2023-02-01T15:51:32;5.10;99.90
30983;DHT22;17660;52.578;13.288;2023-02-01T15:54:04;4.80;99.90
30983;DHT22;17660;52.578;13.288;2023-02-01T15:56:39;4.60;99.90
30983;DHT22;17660;52.578;13.288;2023-02-01T15:59:16;4.40;99.90
30983;DHT22;17660;52.578;13.288;2023-02-01T16:01:43;4.20;99.90
30983;DHT22;17660;52.578;13.288;2023-02-01T16:06:46;3.80;99.90
30983;DHT22;17660;52.578;13.288;2023-02-01T16:09:15;3.70;99.90
30983;DHT22;17660;52.578;13.288;2023-02-01T16:11:58;3.60;99.90
30983;DHT22;17660;52.578;13.288;2023-02-01T16:14:25;3.70;99.90
30983;DHT22;17660;52.578;13.288;2023-02-01T16:16:55;3.70;99.90
30983;DHT22;17660;52.578;13.288;2023-02-01T16:19:22;3.60;99.90
30983;DHT22;17660;52.578;13.288;2023-02-01T16:21:51;3.60;99.90
30983;DHT22;17660;52.578;13.288;2023-02-01T16:24:18;3.60;99.90
30983;DHT22;17660;52.578;13.288;2023-02-01T16:26:45;3.60;99.90
30983;DHT22;17660;52.578;13.288;2023-02-01T16:29:11;3.70;99.90
30983;DHT22;17660;52.578;13.288;2023-02-01T16:31:39;3.70;99.90
30983;DHT22;17660;52.578;13.288;2023-02-01T16:34:09;3.70;99.90
30983;DHT22;17660;52.578;13.288;2023-02-01T16:36:37;3.70;99.90
30983;DHT22;17660;52.578;13.288;2023-02-01T16:39:05;3.70;99.90
30983;DHT22;17660;52.578;13.288;2023-02-01T16:41:33;3.70;99.90
30983;DHT22;17660;52.578;13.288;2023-02-01T16:44:00;3.80;99.90
30983;DHT22;17660;52.578;13.288;2023-02-01T16:46:28;3.80;99.90
30983;DHT22;17660;52.578;13.288;2023-02-01T16:48:59;3.80;99.90
30983;DHT22;17660;52.578;13.288;2023-02-01T16:51:29;3.80;99.90
30983;DHT22;17660;52.578;13.288;2023-02-01T16:53:59;3.90;99.90
30983;DHT22;17660;52.578;13.288;2023-02-01T16:56:32;3.80;99.90
30983;DHT22;17660;52.578;13.288;2023-02-01T16:58:59;3.90;99.90
30983;DHT22;17660;52.578;13.288;2023-02-01T17:01:26;3.90;99.90
30983;DHT22;17660;52.578;13.288;2023-02-01T17:03:53;3.90;99.90
30983;DHT22;17660;52.578;13.288;2023-02-01T17:06:22;4.00;99.90
30983;DHT22;17660;52.578;13.288;2023-02-01T17:08:52;4.00;99.90
30983;DHT22;17660;52.578;13.288;2023-02-01T17:11:20;4.10;99.90
30983;DHT22;17660;52.578;13.288;2023-02-01T17:13:47;4.20;99.90
30983;DHT22;17660;52.578;13.288;2023-02-01T17:16:30;4.20;99.90
30983;DHT22;17660;52.578;13.288;2023-02-01T17:19:16;4.20;99.90
30983;DHT22;17660;52.578;13.288;2023-02-01T17:21:47;4.20;99.90
30983;DHT22;17660;52.578;13.288;2023-02-01T17:24:17;4.20;99.90
30983;DHT22;17660;52.578;13.288;2023-02-01T17:26:45;4.20;99.90
30983;DHT22;17660;52.578;13.288;2023-02-01T17:29:12;4.20;99.90
30983;DHT22;17660;52.578;13.288;2023-02-01T17:31:42;4.20;99.90
30983;DHT22;17660;52.578;13.288;2023-02-01T17:34:10;4.30;99.90
30983;DHT22;17660;52.578;13.288;2023-02-01T17:36:37;4.40;99.90
30983;DHT22;17660;52.578;13.288;2023-02-01T17:39:05;4.50;99.90
30983;DHT22;17660;52.578;13.288;2023-02-01T17:41:32;4.60;99.90
30983;DHT22;17660;52.578;13.288;2023-02-01T17:43:59;4.50;99.90
30983;DHT22;17660;52.578;13.288;2023-02-01T17:46:26;4.50;99.90
30983;DHT22;17660;52.578;13.288;2023-02-01T17:48:54;4.50;99.90
30983;DHT22;17660;52.578;13.288;2023-02-01T17:51:24;4.60;99.90
30983;DHT22;17660;52.578;13.288;2023-02-01T17:53:51;4.60;99.90
30983;DHT22;17660;52.578;13.288;2023-02-01T17:56:23;4.60;99.90
30983;DHT22;17660;52.578;13.288;2023-02-01T17:58:50;4.60;99.90
30983;DHT22;17660;52.578;13.288;2023-02-01T18:01:19;4.70;99.90
30983;DHT22;17660;52.578;13.288;2023-02-01T18:03:46;4.70;99.90
30983;DHT22;17660;52.578;13.288;2023-02-01T18:06:19;4.70;99.90
30983;DHT22;17660;52.578;13.288;2023-02-01T18:08:47;4.70;99.90
30983;DHT22;17660;52.578;13.288;2023-02-01T18:11:16;4.70;99.90
30983;DHT22;17660;52.578;13.288;2023-02-01T18:13:44;4.70;99.90
30983;DHT22;17660;52.578;13.288;2023-02-01T18:18:51;4.70;99.90
30983;DHT22;17660;52.578;13.288;2023-02-01T18:21:21;4.70;99.90
30983;DHT22;17660;52.578;13.288;2023-02-01T18:23:48;4.70;99.90
30983;DHT22;17660;52.578;13.288;2023-02-01T18:26:17;4.80;99.90
30983;DHT22;17660;52.578;13.288;2023-02-01T18:28:44;4.80;99.90
30983;DHT22;17660;52.578;13.288;2023-02-01T18:31:23;4.80;99.90
30983;DHT22;17660;52.578;13.288;2023-02-01T18:33:53;4.70;99.90
30983;DHT22;17660;52.578;13.288;2023-02-01T18:36:20;4.80;99.90
30983;DHT22;17660;52.578;13.288;2023-02-01T18:38:47;4.80;99.90
30983;DHT22;17660;52.578;13.288;2023-02-01T18:41:17;4.90;99.90
30983;DHT22;17660;52.578;13.288;2023-02-01T18:43:44;5.00;99.90
30983;DHT22;17660;52.578;13.288;2023-02-01T18:46:10;5.00;99.90
30983;DHT22;17660;52.578;13.288;2023-02-01T18:48:38;5.10;99.90
30983;DHT22;17660;52.578;13.288;2023-02-01T18:51:05;5.00;99.90
30983;DHT22;17660;52.578;13.288;2023-02-01T18:53:32;5.00;99.90
30983;DHT22;17660;52.578;13.288;2023-02-01T18:55:59;4.90;99.90